Portada
METAR-TAF:

METAR-TAF

Aeropuertos :

Aeropuerto de Burdeos-Mérignac

Burdeos, Francia

latitud: 44-50N, longitud: 000-42W, altitud: 49 m

Observación

El informe se hizo hace 16 minutos, a las 08:00 UTC
Viento 2 kt con dirección variable
Temperatura 7°C
Humedad 87%
Presión 1032 hPa
Visibilidad: 8000 m

METAR: LFBD 220800Z AUTO VRB02KT 8000 NSC 07/05 Q1032 NOSIG

Hora: 09:16 (08:16 UTC)

Pronóstico

El informe se hizo hace 3 horas y 16 minutos, a las 05:00 UTC
Pronóstico válido del 22 a las 06 UTC al 23 a las 12 UTC
Viento 5 kt del este
Visibilidad 10 km o más
sin nubes por debajo de 1500 m y sin presencia de cumulonimbus.
Probabilidad 30% :
Temporalmente
del 22 a las 06 UTC al 22 a las 08 UTC
Visibilidad: 4500 m
neblina
Probabilidad 30% :
Temporalmente
del 23 a las 03 UTC al 23 a las 08 UTC
Visibilidad: 4500 m
neblina

TAF: LFBD 220500Z 2206/2312 09005KT CAVOK TX20/2215Z TN04/2206Z PROB30 TEMPO 2206/2208 4500 BR PROB30 TEMPO 2303/2308 4500 BR

Observaciones y pronósticos meteorológicos de más de 4000 aeropuertos (mensajes METAR y TAF).

Los puntos amarillos y rojos representan las estaciones disponibles.

Ponga el ratón en el punto deseado para ver el nombre de la estación.

Haga clic para ver las observaciones y los pronósticos meteorológicos.

Para cambiar el mapa : haga clic en los botones verdes con una cruz de color negro para hacer un zoom, en el botón verde con un guión para alejar o en las flechas verdes para mapas adyacentes.


METAR-TAF: